Time;durP1;ratioP1;P1;durP2;ratioP2;P2;SDS_P1;SDS_P2;PMS_P1;PMS_P2;Temp;Humidity;BMP_temperature;BMP_pressure;BME280_temperature;BME280_humidity;BME280_pressure;Samples;Min_cycle;Max_cycle;Signal;HPM_P1;HPM_P2
2022/04/24 00:01:27;;;;;;;27.05;16.92;;;11.00;99.90;;;;;;5024404;28;20461;-76
2022/04/24 00:03:54;;;;;;;26.33;16.33;;;11.00;99.90;;;;;;5027199;28;20097;-77
2022/04/24 00:06:20;;;;;;;25.70;16.35;;;11.00;99.90;;;;;;5010789;28;20116;-76
2022/04/24 00:08:45;;;;;;;24.90;15.60;;;11.00;99.90;;;;;;5025103;28;20108;-76
2022/04/24 00:11:11;;;;;;;24.88;15.15;;;11.10;99.90;;;;;;5027070;28;20096;-76
2022/04/24 00:13:41;;;;;;;28.88;15.80;;;11.10;99.90;;;;;;5022986;28;20492;-76
2022/04/24 00:16:10;;;;;;;25.95;15.85;;;11.10;99.90;;;;;;5028619;28;20021;-76
2022/04/24 00:18:38;;;;;;;27.23;16.00;;;11.10;99.90;;;;;;5023282;28;20025;-77
2022/04/24 00:21:04;;;;;;;27.27;16.80;;;11.10;99.90;;;;;;5009432;28;20027;-76
2022/04/24 00:23:31;;;;;;;28.65;16.80;;;11.10;99.90;;;;;;5027828;28;20501;-76
2022/04/24 00:25:57;;;;;;;27.83;16.83;;;11.00;99.90;;;;;;5024478;28;20059;-77
2022/04/24 00:28:22;;;;;;;25.95;15.25;;;11.00;99.90;;;;;;5024564;28;20025;-76
2022/04/24 00:30:48;;;;;;;24.58;15.85;;;11.00;99.90;;;;;;5013641;28;20404;-76
2022/04/24 00:33:14;;;;;;;25.67;15.25;;;11.00;99.90;;;;;;5023254;28;20579;-76
2022/04/24 00:35:40;;;;;;;25.17;14.95;;;11.00;99.90;;;;;;5026451;28;20037;-76
2022/04/24 00:38:06;;;;;;;26.52;16.92;;;11.00;99.90;;;;;;5009573;28;20018;-77
2022/04/24 00:40:31;;;;;;;26.38;15.82;;;11.00;99.90;;;;;;5028768;28;20392;-77
2022/04/24 00:42:57;;;;;;;24.63;16.30;;;11.00;99.90;;;;;;5011647;28;20404;-76
2022/04/24 00:45:23;;;;;;;22.38;14.63;;;11.00;99.90;;;;;;5007791;28;20445;-77
2022/04/24 00:47:48;;;;;;;25.75;15.73;;;10.90;99.90;;;;;;5024519;28;20029;-76
2022/04/24 00:50:14;;;;;;;24.70;15.52;;;10.90;99.90;;;;;;5026507;28;20099;-76
2022/04/24 00:52:40;;;;;;;30.25;15.55;;;10.90;99.90;;;;;;5025581;28;20029;-76
2022/04/24 00:55:07;;;;;;;22.52;14.52;;;10.90;99.90;;;;;;5015245;28;20057;-76
2022/04/24 00:57:33;;;;;;;26.27;16.48;;;10.90;99.90;;;;;;5026064;28;20025;-76
2022/04/24 00:59:59;;;;;;;26.95;16.30;;;10.90;99.90;;;;;;5025883;28;20504;-76
2022/04/24 01:02:25;;;;;;;25.50;16.25;;;10.90;99.90;;;;;;5023452;28;20032;-76
2022/04/24 01:04:51;;;;;;;26.77;16.38;;;10.90;99.90;;;;;;5027739;28;20025;-76
2022/04/24 01:07:17;;;;;;;26.67;15.73;;;10.90;99.90;;;;;;5026285;28;20037;-77
2022/04/24 01:09:42;;;;;;;29.13;16.88;;;10.80;99.90;;;;;;5024529;28;20041;-77
2022/04/24 01:12:08;;;;;;;26.50;17.17;;;10.80;99.90;;;;;;5027377;28;20076;-77
2022/04/24 01:14:35;;;;;;;25.70;16.25;;;10.80;99.90;;;;;;5028019;28;20033;-76
2022/04/24 01:17:02;;;;;;;24.85;15.85;;;10.80;99.90;;;;;;5009220;28;20397;-77
2022/04/24 01:19:28;;;;;;;27.90;15.85;;;10.80;99.90;;;;;;5023662;28;20025;-77
2022/04/24 01:21:54;;;;;;;24.85;14.98;;;10.80;99.90;;;;;;5026571;28;20022;-76
2022/04/24 01:24:25;;;;;;;24.27;15.95;;;10.80;99.90;;;;;;5023103;28;20041;-77
2022/04/24 01:26:51;;;;;;;26.52;16.17;;;10.80;99.90;;;;;;5028240;28;20064;-77
2022/04/24 01:29:18;;;;;;;27.05;14.88;;;10.80;99.90;;;;;;5026226;28;20040;-76
2022/04/24 01:31:45;;;;;;;25.10;16.02;;;10.80;99.90;;;;;;5027459;28;20029;-76
2022/04/24 01:34:11;;;;;;;26.60;15.07;;;10.70;99.90;;;;;;5025898;28;20537;-76
2022/04/24 01:36:37;;;;;;;26.95;15.13;;;10.70;99.90;;;;;;5025953;28;20057;-76
2022/04/24 01:39:04;;;;;;;24.27;15.93;;;10.80;99.90;;;;;;5025394;28;20095;-76
2022/04/24 01:41:31;;;;;;;30.25;17.38;;;10.80;99.90;;;;;;5026587;28;20101;-76
2022/04/24 01:43:58;;;;;;;27.75;17.33;;;10.80;99.90;;;;;;5024042;28;20109;-76
2022/04/24 01:46:23;;;;;;;24.77;15.95;;;10.80;99.90;;;;;;5025658;28;20026;-76
2022/04/24 01:48:49;;;;;;;28.30;17.33;;;10.90;99.90;;;;;;5008062;28;20052;-77
2022/04/24 01:51:15;;;;;;;28.25;17.05;;;10.80;99.90;;;;;;5023391;28;20036;-76
2022/04/24 01:53:41;;;;;;;27.13;16.67;;;10.80;99.90;;;;;;5026763;28;20036;-76
2022/04/24 01:56:08;;;;;;;25.52;16.80;;;10.80;99.90;;;;;;5021625;28;20491;-76
2022/04/24 01:58:34;;;;;;;28.45;16.98;;;10.80;99.90;;;;;;5021727;28;20017;-76
2022/04/24 02:01:00;;;;;;;28.67;16.63;;;10.90;99.90;;;;;;5019972;28;20036;-77
2022/04/24 02:03:28;;;;;;;30.67;18.90;;;10.90;99.90;;;;;;5027858;28;20423;-77
2022/04/24 02:05:54;;;;;;;30.27;17.88;;;10.90;99.90;;;;;;5021838;28;20492;-77
2022/04/24 02:08:19;;;;;;;29.33;17.80;;;10.80;99.90;;;;;;5027124;28;20481;-76
2022/04/24 02:10:45;;;;;;;32.00;19.20;;;10.70;99.90;;;;;;5026021;28;20040;-76
2022/04/24 02:13:11;;;;;;;32.70;19.90;;;10.70;99.90;;;;;;5022374;28;20424;-76
2022/04/24 02:15:37;;;;;;;29.70;19.02;;;10.70;99.90;;;;;;5024262;28;20034;-77
2022/04/24 02:18:02;;;;;;;32.53;19.08;;;10.70;99.90;;;;;;5024066;28;20021;-76
2022/04/24 02:20:31;;;;;;;30.38;19.60;;;10.70;99.90;;;;;;5022765;28;20042;-76
2022/04/24 02:22:59;;;;;;;30.30;19.25;;;10.70;99.90;;;;;;5025009;28;20159;-76
2022/04/24 02:25:25;;;;;;;33.58;20.13;;;10.70;99.90;;;;;;5022233;28;20034;-77
2022/04/24 02:27:54;;;;;;;33.85;19.80;;;10.70;99.90;;;;;;5022131;28;20021;-77
2022/04/24 02:30:25;;;;;;;30.15;18.77;;;10.70;99.90;;;;;;5023233;28;20396;-76
2022/04/24 02:32:51;;;;;;;30.67;18.88;;;10.70;99.90;;;;;;5026330;28;20418;-76
2022/04/24 02:35:17;;;;;;;30.73;18.83;;;10.70;99.90;;;;;;5023812;28;20033;-77
2022/04/24 02:37:44;;;;;;;32.20;19.17;;;10.70;99.90;;;;;;5023576;28;20044;-76
2022/04/24 02:40:10;;;;;;;30.23;19.23;;;10.70;99.90;;;;;;5021882;28;20022;-76
2022/04/24 02:42:40;;;;;;;31.15;18.90;;;10.70;99.90;;;;;;5022145;28;20039;-77
2022/04/24 02:45:07;;;;;;;30.23;19.00;;;10.70;99.90;;;;;;5022495;28;20111;-77
2022/04/24 02:47:33;;;;;;;29.90;18.73;;;10.70;99.90;;;;;;5026717;28;20036;-76
2022/04/24 02:49:59;;;;;;;34.85;20.70;;;10.70;99.90;;;;;;5024264;28;20033;-77
2022/04/24 02:52:25;;;;;;;36.22;20.90;;;10.60;99.90;;;;;;5023294;28;20029;-77
2022/04/24 02:54:51;;;;;;;36.83;22.27;;;10.60;99.90;;;;;;5021736;28;20025;-77
2022/04/24 02:57:16;;;;;;;35.03;21.17;;;10.60;99.90;;;;;;5007830;28;20048;-76
2022/04/24 02:59:48;;;;;;;31.23;20.27;;;10.60;99.90;;;;;;5026104;28;20389;-76
2022/04/24 03:02:13;;;;;;;33.42;20.98;;;10.60;99.90;;;;;;5023937;28;20032;-77
2022/04/24 03:04:39;;;;;;;37.15;22.35;;;10.60;99.90;;;;;;5024589;28;20033;-77
2022/04/24 03:07:05;;;;;;;36.28;22.00;;;10.60;99.90;;;;;;5024946;28;20025;-77
2022/04/24 03:09:31;;;;;;;37.90;22.63;;;10.60;99.90;;;;;;5006219;28;20079;-77
2022/04/24 03:11:57;;;;;;;34.40;22.42;;;10.60;99.90;;;;;;5027082;28;20041;-76
2022/04/24 03:14:22;;;;;;;39.75;22.83;;;10.60;99.90;;;;;;5005437;28;20033;-77
2022/04/24 03:16:48;;;;;;;37.22;21.80;;;10.60;99.90;;;;;;5024998;28;20600;-77
2022/04/24 03:19:14;;;;;;;41.92;23.85;;;10.60;99.90;;;;;;5023932;28;20029;-77
2022/04/24 03:21:39;;;;;;;39.15;23.42;;;10.60;99.90;;;;;;5028525;28;20033;-76
2022/04/24 03:24:05;;;;;;;40.72;23.40;;;10.60;99.90;;;;;;5009995;28;20029;-77
2022/04/24 03:26:31;;;;;;;37.75;23.00;;;10.60;99.90;;;;;;5027340;28;20040;-77
2022/04/24 03:28:57;;;;;;;37.03;22.33;;;10.70;99.90;;;;;;5028000;28;20481;-76
2022/04/24 03:31:24;;;;;;;36.65;22.70;;;10.60;99.90;;;;;;5029869;28;20025;-76
2022/04/24 03:33:50;;;;;;;37.78;22.20;;;10.60;99.90;;;;;;5026583;28;20031;-77
2022/04/24 03:36:16;;;;;;;36.90;22.02;;;10.60;99.90;;;;;;5030902;28;20362;-77
2022/04/24 03:38:42;;;;;;;36.42;22.55;;;10.60;99.90;;;;;;5027097;28;20100;-77
2022/04/24 03:41:08;;;;;;;37.40;22.27;;;10.70;99.90;;;;;;5031039;28;20024;-77
2022/04/24 03:43:34;;;;;;;37.33;22.70;;;10.70;99.90;;;;;;5031007;28;20033;-77
2022/04/24 03:45:59;;;;;;;33.50;21.25;;;10.70;99.90;;;;;;5010843;28;20037;-77
2022/04/24 03:48:25;;;;;;;37.22;21.70;;;10.70;99.90;;;;;;5029759;28;20030;-77
2022/04/24 03:50:51;;;;;;;37.78;23.23;;;10.70;99.90;;;;;;5026931;28;20411;-77
2022/04/24 03:53:18;;;;;;;34.67;21.05;;;10.60;99.90;;;;;;5030848;28;20507;-77
2022/04/24 03:55:45;;;;;;;36.60;22.67;;;10.60;99.90;;;;;;5010282;28;20044;-77
2022/04/24 03:58:11;;;;;;;40.28;23.77;;;10.60;99.90;;;;;;5026752;28;21477;-76
2022/04/24 04:00:37;;;;;;;37.08;22.25;;;10.60;99.90;;;;;;5010824;28;20021;-77
2022/04/24 04:03:02;;;;;;;37.55;23.35;;;10.50;99.90;;;;;;5026659;28;20675;-76
2022/04/24 04:05:29;;;;;;;37.58;22.00;;;10.50;99.90;;;;;;5024689;28;20451;-76
2022/04/24 04:07:55;;;;;;;41.80;25.38;;;10.40;99.90;;;;;;5028138;28;20385;-77
2022/04/24 04:10:22;;;;;;;34.08;20.15;;;10.30;99.90;;;;;;5026643;28;20030;-76
2022/04/24 04:12:48;;;;;;;20.20;11.63;;;10.20;99.90;;;;;;5022968;28;20068;-75
2022/04/24 04:15:14;;;;;;;9.80;5.88;;;10.00;99.90;;;;;;5026426;28;20025;-75
2022/04/24 04:17:40;;;;;;;6.47;3.22;;;9.80;99.90;;;;;;5010135;28;20385;-75
2022/04/24 04:20:11;;;;;;;6.50;3.28;;;9.60;99.90;;;;;;5025973;28;20540;-77
2022/04/24 04:22:51;;;;;;;6.25;3.15;;;9.40;99.90;;;;;;5026599;28;20552;-75
2022/04/24 04:25:21;;;;;;;5.03;2.10;;;9.20;99.90;;;;;;5028599;28;20033;-75
2022/04/24 04:27:47;;;;;;;4.30;1.60;;;9.00;99.90;;;;;;5026515;28;20117;-75
2022/04/24 04:30:13;;;;;;;2.85;1.17;;;8.90;99.90;;;;;;5027160;28;20444;-76
2022/04/24 04:32:39;;;;;;;2.05;0.65;;;8.80;99.90;;;;;;5027702;28;20037;-75
2022/04/24 04:35:05;;;;;;;1.67;1.00;;;8.60;99.90;;;;;;5026967;28;20030;-75
2022/04/24 04:37:32;;;;;;;3.58;1.05;;;8.60;99.90;;;;;;5026256;28;20105;-76
2022/04/24 04:39:58;;;;;;;2.40;0.80;;;8.60;99.90;;;;;;5022693;28;20040;-76
2022/04/24 04:42:23;;;;;;;1.83;0.80;;;8.50;99.90;;;;;;5029052;28;20485;-75
2022/04/24 04:44:49;;;;;;;1.17;0.80;;;8.50;99.90;;;;;;5026361;28;20117;-75
2022/04/24 04:47:15;;;;;;;1.13;0.60;;;8.40;99.90;;;;;;5026930;28;20034;-75
2022/04/24 04:49:40;;;;;;;1.55;0.70;;;8.40;99.90;;;;;;5007752;28;20044;-76
2022/04/24 04:52:06;;;;;;;2.00;0.52;;;8.40;99.90;;;;;;5023607;28;20033;-76
2022/04/24 04:54:32;;;;;;;2.25;0.55;;;8.30;99.90;;;;;;5015555;28;20032;-76
2022/04/24 04:56:57;;;;;;;2.47;0.80;;;8.30;99.90;;;;;;5021175;28;20075;-75
2022/04/24 04:59:23;;;;;;;3.90;1.67;;;8.40;99.90;;;;;;5027540;28;20083;-76
2022/04/24 05:01:48;;;;;;;6.75;3.63;;;8.40;99.90;;;;;;5001303;28;20029;-75
2022/04/24 05:04:14;;;;;;;2.10;1.00;;;8.40;99.90;;;;;;5029129;28;20068;-76
2022/04/24 05:06:40;;;;;;;1.23;0.70;;;8.50;99.90;;;;;;5023554;28;20400;-75
2022/04/24 05:09:05;;;;;;;1.10;0.60;;;8.40;99.90;;;;;;5028845;28;20401;-76
2022/04/24 05:11:31;;;;;;;2.10;0.73;;;8.40;99.90;;;;;;5025665;28;20034;-75
2022/04/24 05:13:57;;;;;;;0.95;0.40;;;8.40;99.90;;;;;;5022764;28;20034;-79
2022/04/24 05:16:23;;;;;;;1.45;0.43;;;8.40;99.90;;;;;;5005575;28;20053;-78
2022/04/24 05:18:48;;;;;;;1.75;0.73;;;8.40;99.90;;;;;;5027849;28;20053;-76
2022/04/24 05:21:16;;;;;;;2.30;0.50;;;8.50;99.90;;;;;;5023073;28;20060;-77
2022/04/24 05:23:45;;;;;;;2.90;0.60;;;8.50;99.90;;;;;;5007624;28;20029;-77
2022/04/24 05:26:12;;;;;;;1.30;0.52;;;8.50;99.90;;;;;;5022204;28;20044;-76
2022/04/24 05:28:38;;;;;;;2.20;0.50;;;8.50;99.90;;;;;;5001280;28;20025;-77
2022/04/24 05:31:05;;;;;;;1.00;0.70;;;8.50;99.90;;;;;;5017015;28;20048;-77
2022/04/24 05:33:31;;;;;;;2.30;0.40;;;8.50;99.90;;;;;;5009914;28;20049;-76
2022/04/24 05:35:57;;;;;;;1.33;0.45;;;8.50;99.90;;;;;;5013956;28;20463;-76
2022/04/24 05:38:22;;;;;;;0.60;0.40;;;8.50;99.90;;;;;;5022125;28;20104;-76
2022/04/24 05:40:48;;;;;;;0.73;0.30;;;8.50;99.90;;;;;;5023503;28;20043;-78
2022/04/24 05:43:14;;;;;;;0.85;0.20;;;8.50;99.90;;;;;;5027371;28;20439;-78
2022/04/24 05:45:39;;;;;;;2.42;0.73;;;8.50;99.90;;;;;;5026121;28;20037;-76
2022/04/24 05:48:05;;;;;;;1.60;0.50;;;8.50;99.90;;;;;;5009609;28;20032;-77
2022/04/24 05:50:31;;;;;;;2.42;0.45;;;8.50;99.90;;;;;;5005687;28;20033;-76
2022/04/24 05:52:57;;;;;;;1.77;0.50;;;8.50;99.90;;;;;;5018559;28;20030;-76
2022/04/24 05:55:23;;;;;;;2.55;0.65;;;8.50;99.90;;;;;;5024509;28;20064;-78
2022/04/24 05:57:49;;;;;;;0.52;0.20;;;8.50;99.90;;;;;;5002869;28;20033;-76
2022/04/24 06:00:16;;;;;;;2.33;0.40;;;8.50;99.90;;;;;;5023537;28;20036;-78
2022/04/24 06:02:43;;;;;;;1.00;0.30;;;8.50;99.90;;;;;;5023617;28;20037;-77
2022/04/24 06:05:10;;;;;;;0.75;0.30;;;8.50;99.90;;;;;;5019341;28;20029;-76
2022/04/24 06:07:36;;;;;;;0.75;0.45;;;8.50;99.90;;;;;;5017196;28;20028;-76
2022/04/24 06:10:04;;;;;;;1.67;0.80;;;8.50;99.90;;;;;;5022130;28;20053;-77
2022/04/24 06:12:29;;;;;;;0.95;0.30;;;8.50;99.90;;;;;;5027270;28;20033;-77
2022/04/24 06:15:04;;;;;;;1.40;0.40;;;8.60;99.90;;;;;;5023261;28;20025;-77
2022/04/24 06:17:30;;;;;;;0.50;0.20;;;8.50;99.90;;;;;;5023410;28;20500;-75
2022/04/24 06:19:56;;;;;;;1.20;0.52;;;8.60;99.90;;;;;;5016587;28;20057;-77
2022/04/24 06:22:21;;;;;;;0.82;0.50;;;8.60;99.90;;;;;;5024391;28;20412;-76
2022/04/24 06:24:49;;;;;;;1.20;0.50;;;8.50;99.90;;;;;;5026253;28;20041;-76
2022/04/24 06:27:15;;;;;;;1.52;0.30;;;8.50;99.90;;;;;;5025287;28;20060;-78
2022/04/24 06:29:41;;;;;;;3.47;0.70;;;8.50;99.90;;;;;;5024316;28;20052;-77
2022/04/24 06:32:08;;;;;;;1.40;0.52;;;8.50;99.90;;;;;;5024294;28;20049;-77
2022/04/24 06:34:34;;;;;;;1.95;0.30;;;8.50;99.90;;;;;;5025446;28;20033;-77
2022/04/24 06:36:59;;;;;;;0.93;0.30;;;8.50;99.90;;;;;;5013997;28;20041;-75
2022/04/24 06:39:25;;;;;;;1.05;0.50;;;8.50;99.90;;;;;;5025198;28;20036;-75
2022/04/24 06:41:51;;;;;;;1.15;0.30;;;8.50;99.90;;;;;;5016927;28;20021;-75
2022/04/24 06:44:17;;;;;;;1.60;0.40;;;8.50;99.90;;;;;;5020203;28;20397;-76
2022/04/24 06:46:43;;;;;;;0.55;0.20;;;8.50;99.90;;;;;;5023419;28;20022;-75
2022/04/24 06:49:09;;;;;;;0.68;0.30;;;8.40;99.90;;;;;;5026229;28;20496;-74
2022/04/24 06:51:35;;;;;;;2.03;0.60;;;8.40;99.90;;;;;;5019964;28;20029;-75
2022/04/24 06:54:01;;;;;;;0.88;0.40;;;8.40;99.90;;;;;;5022706;28;20479;-75
2022/04/24 06:56:26;;;;;;;2.13;0.43;;;8.40;99.90;;;;;;5025245;28;20084;-76
2022/04/24 06:58:52;;;;;;;1.27;0.30;;;8.40;99.90;;;;;;5028543;28;20025;-76
2022/04/24 07:01:19;;;;;;;1.73;0.60;;;8.40;99.90;;;;;;5008177;28;20122;-76
2022/04/24 07:03:45;;;;;;;2.38;0.70;;;8.40;99.90;;;;;;5017837;28;20032;-76
2022/04/24 07:06:11;;;;;;;1.30;0.60;;;8.40;99.90;;;;;;5028280;28;20400;-76
2022/04/24 07:08:37;;;;;;;1.45;0.60;;;8.50;99.90;;;;;;5025990;28;20037;-77
2022/04/24 07:11:03;;;;;;;3.95;0.60;;;8.50;99.90;;;;;;5025612;28;20108;-76
2022/04/24 07:13:29;;;;;;;0.63;0.30;;;8.50;99.90;;;;;;5029495;28;20108;-77
2022/04/24 07:15:55;;;;;;;1.38;0.55;;;8.50;99.90;;;;;;5026241;28;20120;-76
2022/04/24 07:18:21;;;;;;;1.02;0.40;;;8.50;99.90;;;;;;5021218;28;20482;-78
2022/04/24 07:20:47;;;;;;;1.63;0.50;;;8.50;99.90;;;;;;5021400;28;20052;-75
2022/04/24 07:23:12;;;;;;;2.08;0.50;;;8.50;99.90;;;;;;5025609;28;20716;-75
2022/04/24 07:25:43;;;;;;;1.23;0.55;;;8.40;99.90;;;;;;5024067;28;20443;-76
2022/04/24 07:28:13;;;;;;;0.40;0.38;;;8.50;99.90;;;;;;5012635;28;20438;-75
2022/04/24 07:30:39;;;;;;;0.90;0.38;;;8.50;99.90;;;;;;5021957;28;20165;-75
2022/04/24 07:33:05;;;;;;;3.22;0.47;;;8.50;99.90;;;;;;5006311;28;20047;-75
2022/04/24 07:35:33;;;;;;;1.77;0.40;;;8.50;99.90;;;;;;5030133;28;20033;-75
2022/04/24 07:37:59;;;;;;;2.00;0.40;;;8.50;99.90;;;;;;5023914;28;20499;-75
2022/04/24 07:40:30;;;;;;;1.90;0.43;;;8.50;99.90;;;;;;5006355;28;20030;-76
2022/04/24 07:43:00;;;;;;;0.80;0.50;;;8.60;99.90;;;;;;5024757;28;20026;-76
2022/04/24 07:45:29;;;;;;;1.70;0.60;;;8.60;99.90;;;;;;5024441;28;20037;-76
2022/04/24 07:47:56;;;;;;;0.82;0.40;;;8.70;99.90;;;;;;5026355;28;20087;-76
2022/04/24 07:50:24;;;;;;;1.08;0.50;;;8.70;99.90;;;;;;5026546;28;20045;-77
2022/04/24 07:52:51;;;;;;;0.90;0.63;;;8.80;99.90;;;;;;5000027;28;20033;-76
2022/04/24 07:55:19;;;;;;;1.75;0.40;;;8.90;99.90;;;;;;5020849;28;20026;-75
2022/04/24 07:57:47;;;;;;;0.90;0.40;;;8.90;99.90;;;;;;5022960;28;20025;-76
2022/04/24 08:00:13;;;;;;;0.73;0.30;;;8.90;99.90;;;;;;5020920;28;20029;-75
2022/04/24 08:03:00;;;;;;;1.45;0.70;;;9.00;99.90;;;;;;5024939;28;20083;-75
2022/04/24 08:05:31;;;;;;;0.60;0.38;;;9.00;99.90;;;;;;5019161;28;20022;-76
2022/04/24 08:08:00;;;;;;;1.48;0.50;;;9.00;99.90;;;;;;5026203;28;20056;-76
2022/04/24 08:10:30;;;;;;;0.98;0.50;;;9.10;99.90;;;;;;5030835;28;20052;-75
2022/04/24 08:12:55;;;;;;;0.80;0.40;;;9.10;99.90;;;;;;5012952;28;20038;-76
2022/04/24 08:15:21;;;;;;;1.75;0.70;;;9.10;99.90;;;;;;5018595;28;20107;-76
2022/04/24 08:17:47;;;;;;;0.88;0.60;;;9.20;99.90;;;;;;5008552;28;20531;-75
2022/04/24 08:20:14;;;;;;;0.98;0.40;;;9.20;99.90;;;;;;5025587;28;20032;-75
2022/04/24 08:22:43;;;;;;;0.90;0.52;;;9.20;99.90;;;;;;5025666;28;20033;-75
2022/04/24 08:25:13;;;;;;;0.95;0.40;;;9.30;99.90;;;;;;5027509;28;20036;-75
2022/04/24 08:27:39;;;;;;;1.65;0.60;;;9.30;99.90;;;;;;5021120;28;20029;-75
2022/04/24 08:30:07;;;;;;;0.80;0.45;;;9.30;99.90;;;;;;5022689;28;20055;-76
2022/04/24 08:32:34;;;;;;;0.90;0.50;;;9.40;99.90;;;;;;5022289;28;20041;-75
2022/04/24 08:35:00;;;;;;;0.95;0.60;;;9.40;99.90;;;;;;5020852;28;20037;-76
2022/04/24 08:37:26;;;;;;;1.10;0.60;;;9.40;99.90;;;;;;5019856;28;20109;-75
2022/04/24 08:39:53;;;;;;;2.15;0.85;;;9.50;99.90;;;;;;5024562;28;20036;-76
2022/04/24 08:42:21;;;;;;;3.42;1.00;;;9.50;99.90;;;;;;5018793;28;20111;-76
2022/04/24 08:44:51;;;;;;;1.50;0.65;;;9.50;99.90;;;;;;5008872;28;20022;-76
2022/04/24 08:47:18;;;;;;;0.93;0.68;;;9.60;99.90;;;;;;5028008;28;20027;-76
2022/04/24 08:49:44;;;;;;;1.20;0.60;;;9.60;99.90;;;;;;5026247;28;20063;-76
2022/04/24 08:52:10;;;;;;;0.75;0.40;;;9.60;99.90;;;;;;5024068;28;20065;-75
2022/04/24 08:54:38;;;;;;;0.98;0.50;;;9.60;99.90;;;;;;5009658;28;20100;-77
2022/04/24 08:57:04;;;;;;;1.10;0.63;;;9.60;99.90;;;;;;5023509;28;20087;-76
2022/04/24 08:59:29;;;;;;;2.05;1.17;;;9.60;99.90;;;;;;5026777;28;20033;-76
2022/04/24 09:01:58;;;;;;;1.95;0.60;;;9.70;99.90;;;;;;5029349;28;20028;-79
2022/04/24 09:04:30;;;;;;;1.08;0.60;;;9.70;99.90;;;;;;5032913;28;20017;-79
2022/04/24 09:07:02;;;;;;;0.80;0.47;;;9.70;99.90;;;;;;5026800;28;20612;-77
2022/04/24 09:09:48;;;;;;;1.15;0.68;;;9.80;99.90;;;;;;5059986;23;20053;-79
2022/04/24 09:12:16;;;;;;;3.50;1.77;;;9.80;99.90;;;;;;5036564;28;20515;-72
2022/04/24 09:14:49;;;;;;;4.53;1.40;;;9.90;99.90;;;;;;5024270;28;20040;-73
2022/04/24 09:17:18;;;;;;;4.77;1.40;;;9.90;99.90;;;;;;5023250;28;20026;-72
2022/04/24 09:19:52;;;;;;;3.10;1.17;;;10.00;99.90;;;;;;5011055;28;20281;-75
2022/04/24 09:22:18;;;;;;;1.40;0.60;;;10.00;99.90;;;;;;5021315;28;20028;-78
2022/04/24 09:25:02;;;;;;;1.98;0.85;;;10.00;99.90;;;;;;5032133;28;20040;-76
2022/04/24 09:27:33;;;;;;;2.60;0.45;;;10.10;99.90;;;;;;5029740;28;20032;-77
2022/04/24 09:30:05;;;;;;;3.38;0.50;;;10.10;99.90;;;;;;5011991;28;20045;-79
2022/04/24 09:32:36;;;;;;;0.63;0.45;;;10.10;99.90;;;;;;5016160;28;20126;-78
2022/04/24 09:35:02;;;;;;;3.42;0.50;;;10.10;99.90;;;;;;5016782;28;20067;-79
2022/04/24 09:37:41;;;;;;;1.13;0.60;;;10.10;99.90;;;;;;5029877;28;20361;-79
2022/04/24 09:40:13;;;;;;;2.20;0.50;;;10.20;99.90;;;;;;5030012;28;20029;-79
2022/04/24 09:42:39;;;;;;;1.55;0.50;;;10.20;99.90;;;;;;5013260;28;20033;-78
2022/04/24 09:45:05;;;;;;;2.15;0.75;;;10.30;99.90;;;;;;5032872;28;20041;-78
2022/04/24 09:47:37;;;;;;;2.83;0.40;;;10.30;99.90;;;;;;5033729;28;20040;-77
2022/04/24 09:50:05;;;;;;;1.45;0.55;;;10.30;99.90;;;;;;5030782;28;20504;-78
2022/04/24 09:52:31;;;;;;;1.83;0.68;;;10.40;99.90;;;;;;5036115;28;20160;-79
2022/04/24 09:54:58;;;;;;;4.05;0.95;;;10.40;99.90;;;;;;5040672;28;20170;-79
2022/04/24 09:57:29;;;;;;;1.95;0.60;;;10.40;99.90;;;;;;5036479;28;20017;-78
2022/04/24 09:59:58;;;;;;;1.50;0.80;;;10.40;99.90;;;;;;5033781;28;20091;-78
2022/04/24 10:02:30;;;;;;;1.77;0.60;;;10.40;99.90;;;;;;5011430;28;20036;-78
2022/04/24 10:05:04;;;;;;;1.48;0.63;;;10.40;99.90;;;;;;5027345;28;20120;-77
2022/04/24 10:07:30;;;;;;;;;;;10.40;99.90;;;;;;5032568;28;20033;-77
2022/04/24 10:10:01;;;;;;;0.70;0.50;;;10.40;99.90;;;;;;5027974;28;19912;-77
2022/04/24 10:12:43;;;;;;;3.55;1.35;;;10.40;99.90;;;;;;5033767;28;20022;-77
2022/04/24 10:15:21;;;;;;;8.02;0.85;;;10.40;99.90;;;;;;5011220;28;20030;-77
2022/04/24 10:18:25;;;;;;;2.35;0.90;;;10.40;99.90;;;;;;5027823;28;20075;-76
2022/04/24 10:21:12;;;;;;;1.40;0.68;;;10.50;99.90;;;;;;5010461;28;20022;-76
2022/04/24 10:23:43;;;;;;;1.75;0.80;;;10.50;99.90;;;;;;5028750;28;20024;-76
2022/04/24 10:26:23;;;;;;;1.33;0.60;;;10.50;99.90;;;;;;5027508;28;20075;-76
2022/04/24 10:28:59;;;;;;;1.02;0.70;;;10.60;99.90;;;;;;5070507;22;20049;-70
2022/04/24 10:31:25;;;;;;;4.30;1.65;;;10.70;99.90;;;;;;5024039;28;20057;-70
2022/04/24 10:33:52;;;;;;;2.28;0.70;;;10.70;99.90;;;;;;5009736;28;20084;-70
2022/04/24 10:36:18;;;;;;;1.77;0.80;;;10.70;99.90;;;;;;5029995;28;20478;-70
2022/04/24 10:38:46;;;;;;;1.20;0.82;;;10.70;99.90;;;;;;5018671;28;20029;-70
2022/04/24 10:41:31;;;;;;;2.30;1.02;;;10.70;99.90;;;;;;5026019;28;20026;-71
2022/04/24 10:44:15;;;;;;;2.30;1.13;;;10.70;99.90;;;;;;5016074;28;20033;-72
2022/04/24 10:46:42;;;;;;;1.15;0.70;;;10.80;99.90;;;;;;5030381;28;20034;-70
2022/04/24 10:49:13;;;;;;;1.63;0.88;;;10.80;99.90;;;;;;5012365;28;20828;-73
2022/04/24 10:51:41;;;;;;;3.40;1.00;;;10.80;99.90;;;;;;5023483;28;20030;-68
2022/04/24 10:54:13;;;;;;;2.03;1.02;;;10.80;99.90;;;;;;5023882;28;20037;-69
2022/04/24 10:56:41;;;;;;;2.00;0.90;;;10.90;99.90;;;;;;5025625;28;20013;-69
2022/04/24 10:59:15;;;;;;;2.15;0.73;;;10.90;99.90;;;;;;5013257;28;20091;-69
2022/04/24 11:01:45;;;;;;;1.92;0.90;;;11.00;99.90;;;;;;5028819;28;20032;-69
2022/04/24 11:04:14;;;;;;;1.35;0.90;;;11.00;99.90;;;;;;5024923;28;20382;-69
2022/04/24 11:06:52;;;;;;;2.40;1.17;;;11.10;99.90;;;;;;5006501;28;20402;-69
2022/04/24 11:09:18;;;;;;;3.13;1.27;;;11.20;99.90;;;;;;5014496;28;20033;-70
2022/04/24 11:11:56;;;;;;;3.42;1.92;;;11.20;99.90;;;;;;5021802;28;20026;-73
2022/04/24 11:14:23;;;;;;;2.70;1.30;;;11.30;99.90;;;;;;5026421;28;20163;-71
2022/04/24 11:16:50;;;;;;;3.90;1.30;;;11.40;99.90;;;;;;5029864;28;20025;-71
2022/04/24 11:19:27;;;;;;;2.35;1.20;;;11.50;99.90;;;;;;5024345;28;20077;-71
2022/04/24 11:21:54;;;;;;;2.28;1.80;;;11.70;99.90;;;;;;5015190;28;20029;-71
2022/04/24 11:24:20;;;;;;;3.42;1.92;;;11.70;99.90;;;;;;5026176;28;20446;-70
2022/04/24 11:26:48;;;;;;;8.90;5.35;;;11.90;99.90;;;;;;5022957;28;20033;-70
2022/04/24 11:29:14;;;;;;;4.90;2.30;;;12.00;99.90;;;;;;5021665;28;22505;-68
2022/04/24 11:31:47;;;;;;;2.88;1.60;;;12.20;99.90;;;;;;5026425;28;20538;-71
2022/04/24 11:34:19;;;;;;;3.30;1.63;;;12.30;99.90;;;;;;5018151;28;20108;-70
2022/04/24 11:36:45;;;;;;;2.65;1.55;;;12.40;99.90;;;;;;5033765;28;20029;-68
2022/04/24 11:39:11;;;;;;;2.50;1.20;;;12.50;99.90;;;;;;5012887;28;20502;-69
2022/04/24 11:41:37;;;;;;;4.18;1.40;;;12.50;99.90;;;;;;5014624;28;20017;-70
2022/04/24 11:52:38;;;;;;;3.33;1.00;;;12.20;99.90;;;;;;5027456;28;20029;-70
2022/04/24 11:55:06;;;;;;;1.90;1.15;;;12.10;99.90;;;;;;5026312;28;20025;-70
2022/04/24 11:57:35;;;;;;;2.95;1.20;;;12.10;99.90;;;;;;5010822;28;20033;-70
2022/04/24 12:00:05;;;;;;;2.78;0.70;;;12.20;99.90;;;;;;5024235;28;20025;-69
2022/04/24 12:02:31;;;;;;;0.90;0.65;;;12.20;99.90;;;;;;5016386;28;20036;-70
2022/04/24 12:04:57;;;;;;;0.80;0.50;;;12.10;99.90;;;;;;5027857;28;20568;-69
2022/04/24 12:07:33;;;;;;;3.83;1.35;;;12.20;99.90;;;;;;5004962;28;20022;-71
2022/04/24 12:10:00;;;;;;;2.92;1.55;;;12.20;99.90;;;;;;5015395;28;20083;-72
2022/04/24 12:12:26;;;;;;;6.28;2.63;;;12.30;99.90;;;;;;5023479;28;20108;-73
2022/04/24 12:14:52;;;;;;;1.10;0.80;;;12.40;99.90;;;;;;5004284;28;20109;-72
2022/04/24 12:17:18;;;;;;;4.75;1.20;;;12.40;99.90;;;;;;5030875;28;20769;-71
2022/04/24 12:19:55;;;;;;;1.90;0.98;;;12.50;99.90;;;;;;5033279;28;20032;-71
2022/04/24 12:22:32;;;;;;;3.53;1.67;;;12.50;99.90;;;;;;5030194;28;20040;-70
2022/04/24 12:25:10;;;;;;;5.05;0.98;;;12.50;99.90;;;;;;5022646;28;20561;-71
2022/04/24 12:27:36;;;;;;;2.50;1.15;;;12.50;99.90;;;;;;5019175;28;20060;-71
2022/04/24 12:30:04;;;;;;;3.40;1.00;;;12.40;99.90;;;;;;5030742;28;20116;-70
2022/04/24 12:32:30;;;;;;;2.80;0.80;;;12.50;99.90;;;;;;5019286;28;20040;-71
2022/04/24 12:34:56;;;;;;;1.48;0.70;;;12.40;99.90;;;;;;5030020;28;20398;-71
2022/04/24 12:37:48;;;;;;;1.77;0.80;;;12.30;99.90;;;;;;5031189;28;20022;-71
2022/04/24 12:40:14;;;;;;;3.63;0.93;;;12.30;99.90;;;;;;5027193;28;20037;-71
2022/04/24 12:42:53;;;;;;;2.22;0.88;;;12.30;99.90;;;;;;5022166;28;20037;-70
2022/04/24 12:45:20;;;;;;;0.70;0.50;;;12.20;99.90;;;;;;5030473;28;20643;-71
2022/04/24 12:47:47;;;;;;;2.63;0.82;;;12.10;99.90;;;;;;5030295;28;20034;-71
2022/04/24 12:50:17;;;;;;;3.70;0.80;;;12.00;99.90;;;;;;5020923;28;20025;-71
2022/04/24 12:52:43;;;;;;;1.25;0.75;;;12.10;99.90;;;;;;5006812;28;20029;-71
2022/04/24 12:55:09;;;;;;;3.08;0.90;;;12.20;99.90;;;;;;5013747;28;20029;-71
2022/04/24 12:57:35;;;;;;;0.70;0.50;;;12.30;99.90;;;;;;5030845;28;20059;-70